createdAt,value
2022-12-01T00:00:04.522Z,20.42
2022-12-01T00:02:32.107Z,20.15
2022-12-01T00:05:00.845Z,19.80
2022-12-01T00:07:28.241Z,20.10
2022-12-01T00:10:14.316Z,18.77
2022-12-01T00:12:43.554Z,19.75
2022-12-01T00:15:11.454Z,18.05
2022-12-01T00:17:39.000Z,19.73
2022-12-01T00:20:08.747Z,16.80
2022-12-01T00:22:36.005Z,17.93
2022-12-01T00:25:03.923Z,18.05
2022-12-01T00:27:31.170Z,17.48
2022-12-01T00:29:58.455Z,19.33
2022-12-01T00:32:25.788Z,19.08
2022-12-01T00:34:53.054Z,18.07
2022-12-01T00:37:21.709Z,18.63
2022-12-01T00:39:49.234Z,19.80
2022-12-01T00:42:16.776Z,17.90
2022-12-01T00:44:44.724Z,17.70
2022-12-01T00:47:12.006Z,18.63
2022-12-01T00:49:39.397Z,19.02
2022-12-01T00:52:06.681Z,18.60
2022-12-01T00:54:35.296Z,19.10
2022-12-01T00:57:02.718Z,19.42
2022-12-01T00:59:30.019Z,18.33
2022-12-01T01:01:57.344Z,20.10
2022-12-01T01:04:24.624Z,19.05
2022-12-01T01:06:52.500Z,20.08
2022-12-01T01:09:19.849Z,19.73
2022-12-01T01:11:48.520Z,20.40
2022-12-01T01:14:15.936Z,19.35
2022-12-01T01:16:43.312Z,18.98
2022-12-01T01:19:10.734Z,19.13
2022-12-01T01:21:39.027Z,19.40
2022-12-01T01:24:06.864Z,19.37
2022-12-01T01:26:35.486Z,19.45
2022-12-01T01:29:07.651Z,19.27
2022-12-01T01:31:35.090Z,19.95
2022-12-01T01:34:03.345Z,20.23
2022-12-01T01:36:31.449Z,20.93
2022-12-01T01:38:58.713Z,18.60
2022-12-01T01:41:26.055Z,19.55
2022-12-01T01:43:55.355Z,20.55
2022-12-01T01:46:25.801Z,18.98
2022-12-01T01:48:56.457Z,19.33
2022-12-01T01:51:27.884Z,18.75
2022-12-01T01:53:58.729Z,19.00
2022-12-01T01:56:26.023Z,19.02
2022-12-01T01:58:53.802Z,20.25
2022-12-01T02:01:21.248Z,19.20
2022-12-01T02:03:52.411Z,19.25
2022-12-01T02:06:20.386Z,18.10
2022-12-01T02:08:47.740Z,18.77
2022-12-01T02:11:33.368Z,19.15
2022-12-01T02:14:08.789Z,19.70
2022-12-01T02:16:46.691Z,18.80
2022-12-01T02:19:43.053Z,17.67
2022-12-01T02:22:22.135Z,18.75
2022-12-01T02:25:01.707Z,18.10
2022-12-01T02:27:49.161Z,18.93
2022-12-01T02:30:17.743Z,18.55
2022-12-01T02:33:00.403Z,18.67
2022-12-01T02:35:34.244Z,17.52
2022-12-01T02:38:12.848Z,17.88
2022-12-01T02:40:43.562Z,18.30
2022-12-01T02:43:17.310Z,18.02
2022-12-01T02:45:51.427Z,20.60
2022-12-01T02:48:25.083Z,19.48
2022-12-01T02:50:55.412Z,15.73
2022-12-01T02:53:22.831Z,18.63
2022-12-01T02:55:52.685Z,17.73
2022-12-01T02:58:20.665Z,18.20
2022-12-01T03:01:06.913Z,18.42
2022-12-01T03:03:54.289Z,17.05
2022-12-01T03:06:31.245Z,18.10
2022-12-01T03:09:09.246Z,19.23
2022-12-01T03:11:44.904Z,19.60
2022-12-01T03:14:22.814Z,19.17
2022-12-01T03:16:52.258Z,19.90
2022-12-01T03:19:29.387Z,18.13
2022-12-01T03:22:02.039Z,16.95
2022-12-01T03:24:33.013Z,19.73
2022-12-01T03:27:03.192Z,19.05
2022-12-01T03:29:33.288Z,19.75
2022-12-01T03:32:06.462Z,19.97
2022-12-01T03:34:38.932Z,19.73
2022-12-01T03:37:10.391Z,21.17
2022-12-01T03:39:40.047Z,21.65
2022-12-01T03:42:13.443Z,19.95
2022-12-01T03:44:47.644Z,18.97
2022-12-01T03:47:17.489Z,21.05
2022-12-01T03:49:47.682Z,21.75
2022-12-01T03:52:23.468Z,22.15
2022-12-01T03:55:03.577Z,21.55
2022-12-01T03:57:35.144Z,20.70
2022-12-01T04:00:03.245Z,20.58
2022-12-01T04:02:40.524Z,21.00
2022-12-01T04:05:09.435Z,20.40
2022-12-01T04:07:36.858Z,19.38
2022-12-01T04:10:05.275Z,18.80
2022-12-01T04:12:35.679Z,20.25
2022-12-01T04:15:05.394Z,20.90
2022-12-01T04:17:32.697Z,20.25
2022-12-01T04:20:00.385Z,19.40
2022-12-01T04:22:29.047Z,21.13
2022-12-01T04:24:56.295Z,19.27
2022-12-01T04:27:23.675Z,22.10
2022-12-01T04:29:51.187Z,22.45
2022-12-01T04:32:18.761Z,21.95
2022-12-01T04:34:46.054Z,21.20
2022-12-01T04:37:13.323Z,22.48
2022-12-01T04:39:44.855Z,23.83
2022-12-01T04:42:12.119Z,22.98
2022-12-01T04:44:39.338Z,21.55
2022-12-01T04:47:07.088Z,21.20
2022-12-01T04:49:35.216Z,22.88
2022-12-01T04:52:02.615Z,23.13
2022-12-01T04:54:30.123Z,22.13
2022-12-01T04:56:58.696Z,22.27
2022-12-01T04:59:25.928Z,20.67
2022-12-01T05:01:53.312Z,22.45
2022-12-01T05:04:20.626Z,22.38
2022-12-01T05:06:47.960Z,22.25
2022-12-01T05:09:17.769Z,21.90
2022-12-01T05:11:45.364Z,20.47
2022-12-01T05:14:14.114Z,22.98
2022-12-01T05:16:41.467Z,22.63
2022-12-01T05:19:27.830Z,22.35
2022-12-01T05:21:55.160Z,20.38
2022-12-01T05:24:22.484Z,21.23
2022-12-01T05:26:49.777Z,22.27
2022-12-01T05:29:18.472Z,21.90
2022-12-01T05:31:46.142Z,19.35
2022-12-01T05:34:13.513Z,21.75
2022-12-01T05:36:40.829Z,23.10
2022-12-01T05:39:08.153Z,21.50
2022-12-01T05:41:35.444Z,22.25
2022-12-01T05:44:03.261Z,22.60
2022-12-01T05:46:31.990Z,22.05
2022-12-01T05:48:59.342Z,15.13
2022-12-01T05:51:26.676Z,20.65
2022-12-01T05:53:53.977Z,22.85
2022-12-01T05:56:21.812Z,22.40
2022-12-01T05:58:49.142Z,22.85
2022-12-01T06:01:16.456Z,20.70
2022-12-01T06:03:45.099Z,22.27
2022-12-01T06:06:12.394Z,22.08
2022-12-01T06:08:39.787Z,23.15
2022-12-01T06:11:07.057Z,23.77
2022-12-01T06:13:34.313Z,23.37
2022-12-01T06:16:03.811Z,21.15
2022-12-01T06:18:33.080Z,22.95
2022-12-01T06:21:02.012Z,23.08
2022-12-01T06:23:30.764Z,21.73
2022-12-01T06:25:58.332Z,20.80
2022-12-01T06:28:25.890Z,22.00
2022-12-01T06:30:56.516Z,23.35
2022-12-01T06:33:26.679Z,22.83
2022-12-01T06:35:58.063Z,23.95
2022-12-01T06:38:26.669Z,22.93
2022-12-01T06:40:53.941Z,23.35
2022-12-01T06:43:22.542Z,23.88
2022-12-01T06:45:50.005Z,25.10
2022-12-01T06:48:17.513Z,22.10
2022-12-01T06:50:44.897Z,23.40
2022-12-01T06:53:12.199Z,24.63
2022-12-01T06:55:40.936Z,21.35
2022-12-01T06:58:08.384Z,25.27
2022-12-01T07:00:36.099Z,24.60
2022-12-01T07:03:03.501Z,22.23
2022-12-01T07:05:30.833Z,24.67
2022-12-01T07:07:59.789Z,25.33
2022-12-01T07:10:28.059Z,25.42
2022-12-01T07:12:57.614Z,24.45
2022-12-01T07:15:25.057Z,25.30
2022-12-01T07:17:52.508Z,23.20
2022-12-01T07:20:19.910Z,25.88
2022-12-01T07:22:47.351Z,27.63
2022-12-01T07:25:14.904Z,28.77
2022-12-01T07:27:42.351Z,27.77
2022-12-01T07:30:11.781Z,26.85
2022-12-01T07:32:40.285Z,23.45
2022-12-01T07:35:10.124Z,29.70
2022-12-01T07:37:37.501Z,28.02
2022-12-01T07:40:06.257Z,28.20
2022-12-01T07:42:33.678Z,28.30
2022-12-01T07:45:01.157Z,29.77
2022-12-01T07:47:29.842Z,26.65
2022-12-01T07:49:57.183Z,27.02
2022-12-01T07:52:24.690Z,26.80
2022-12-01T07:54:52.728Z,28.73
2022-12-01T07:57:20.566Z,27.20
2022-12-01T07:59:48.207Z,25.13
2022-12-01T08:02:16.017Z,27.65
2022-12-01T08:04:44.844Z,27.00
2022-12-01T08:07:12.183Z,31.45
2022-12-01T08:09:39.549Z,29.73
2022-12-01T08:12:07.520Z,25.42
2022-12-01T08:14:34.931Z,31.02
2022-12-01T08:17:02.304Z,26.20
2022-12-01T08:19:29.753Z,31.00
2022-12-01T08:21:58.549Z,28.00
2022-12-01T08:24:26.007Z,26.60
2022-12-01T08:26:53.345Z,27.58
2022-12-01T08:29:20.715Z,28.47
2022-12-01T08:31:48.100Z,29.52
2022-12-01T08:34:15.335Z,29.55
2022-12-01T08:36:42.593Z,30.63
2022-12-01T08:39:11.316Z,30.67
2022-12-01T08:41:38.573Z,29.37
2022-12-01T08:44:06.760Z,28.30
2022-12-01T08:46:35.404Z,27.08
2022-12-01T08:49:04.311Z,23.00
2022-12-01T08:51:32.349Z,26.02
2022-12-01T08:54:00.578Z,27.97
2022-12-01T08:56:32.339Z,28.10
2022-12-01T08:58:59.984Z,29.15
2022-12-01T09:01:28.217Z,27.33
2022-12-01T09:04:06.656Z,28.40
2022-12-01T09:06:37.599Z,29.77
2022-12-01T09:09:05.174Z,30.45
2022-12-01T09:11:33.809Z,29.77
2022-12-01T09:14:01.077Z,26.95
2022-12-01T09:16:28.422Z,28.58
2022-12-01T09:18:56.316Z,28.77
2022-12-01T09:21:26.266Z,28.67
2022-12-01T09:23:54.297Z,32.00
2022-12-01T09:26:22.428Z,30.40
2022-12-01T09:28:56.666Z,31.13
2022-12-01T09:31:24.568Z,29.73
2022-12-01T09:33:56.307Z,29.60
2022-12-01T09:36:23.626Z,30.30
2022-12-01T09:38:50.953Z,32.20
2022-12-01T09:41:21.572Z,30.77
2022-12-01T09:43:57.636Z,29.73
2022-12-01T09:46:30.551Z,29.65
2022-12-01T09:48:59.511Z,28.98
2022-12-01T09:51:28.911Z,27.92
2022-12-01T09:53:58.643Z,28.42
2022-12-01T09:56:29.046Z,28.07
2022-12-01T09:58:59.595Z,27.75
2022-12-01T10:01:32.944Z,26.42
2022-12-01T10:04:08.298Z,25.58
2022-12-01T10:06:39.847Z,25.70
2022-12-01T10:09:18.104Z,25.57
2022-12-01T10:11:47.147Z,26.33
2022-12-01T10:14:20.143Z,27.38
2022-12-01T10:16:58.033Z,26.90
2022-12-01T10:19:31.238Z,26.27
2022-12-01T10:22:15.793Z,25.40
2022-12-01T10:24:54.928Z,22.08
2022-12-01T10:27:37.004Z,25.23
2022-12-01T10:30:09.965Z,26.70
2022-12-01T10:32:46.808Z,25.05
2022-12-01T10:35:16.807Z,26.17
2022-12-01T10:37:45.831Z,22.60
2022-12-01T10:40:15.307Z,27.40
2022-12-01T10:42:44.357Z,27.00
2022-12-01T10:45:18.152Z,25.50
2022-12-01T10:48:08.491Z,24.97
2022-12-01T10:50:36.307Z,26.08
2022-12-01T10:53:04.544Z,24.90
2022-12-01T10:55:34.688Z,25.95
2022-12-01T10:58:13.741Z,24.70
2022-12-01T11:01:02.415Z,24.07
2022-12-01T11:03:32.073Z,23.20
2022-12-01T11:06:01.961Z,26.67
2022-12-01T11:08:36.057Z,25.15
2022-12-01T11:11:03.720Z,25.13
2022-12-01T11:13:34.319Z,26.73
2022-12-01T11:16:06.046Z,26.65
2022-12-01T11:18:35.823Z,26.15
2022-12-01T11:21:09.108Z,25.40
2022-12-01T11:23:38.375Z,25.08
2022-12-01T11:26:12.621Z,24.83
2022-12-01T11:28:43.666Z,25.02
2022-12-01T11:31:12.508Z,25.75
2022-12-01T11:33:51.257Z,22.85
2022-12-01T11:36:34.292Z,26.05
2022-12-01T11:39:02.564Z,24.43
2022-12-01T11:41:35.857Z,24.98
2022-12-01T11:44:12.835Z,25.33
2022-12-01T11:47:07.844Z,26.08
2022-12-01T11:49:47.178Z,24.35
2022-12-01T11:52:24.946Z,24.23
2022-12-01T11:54:57.490Z,24.08
2022-12-01T11:57:34.096Z,24.17
2022-12-01T12:00:05.928Z,24.02
2022-12-01T12:02:42.893Z,23.52
2022-12-01T12:05:42.478Z,23.43
2022-12-01T12:08:22.063Z,21.83
2022-12-01T12:10:56.459Z,22.85
2022-12-01T12:13:48.683Z,23.50
2022-12-01T12:16:30.252Z,22.25
2022-12-01T12:19:15.190Z,20.97
2022-12-01T12:21:51.220Z,23.02
2022-12-01T12:24:39.094Z,23.48
2022-12-01T12:27:13.797Z,24.63
2022-12-01T12:29:58.234Z,22.75
2022-12-01T12:32:44.688Z,22.20
2022-12-01T12:35:30.304Z,19.10
2022-12-01T12:38:19.993Z,20.60
2022-12-01T12:40:52.955Z,19.75
2022-12-01T12:43:30.775Z,20.63
2022-12-01T12:46:03.680Z,19.67
2022-12-01T12:49:11.599Z,21.15
2022-12-01T12:51:37.887Z,19.85
2022-12-01T12:54:17.537Z,19.00
2022-12-01T12:56:49.294Z,20.63
2022-12-01T12:59:22.638Z,22.03
2022-12-01T13:01:57.286Z,20.17
2022-12-01T13:04:32.192Z,21.92
2022-12-01T13:07:05.354Z,21.08
2022-12-01T13:09:38.424Z,21.63
2022-12-01T13:12:09.311Z,19.33
2022-12-01T13:14:40.684Z,19.00
2022-12-01T13:17:16.157Z,20.95
2022-12-01T13:19:45.954Z,19.77
2022-12-01T13:22:17.170Z,19.60
2022-12-01T13:24:44.827Z,20.97
2022-12-01T13:27:18.382Z,19.02
2022-12-01T13:29:48.503Z,19.98
2022-12-01T13:32:34.833Z,19.50
2022-12-01T13:35:06.148Z,20.88
2022-12-01T13:37:38.094Z,19.17
2022-12-01T13:40:12.323Z,20.65
2022-12-01T13:42:40.704Z,20.63
2022-12-01T13:45:16.692Z,19.90
2022-12-01T13:47:51.506Z,19.30
2022-12-01T13:51:00.776Z,19.57
2022-12-01T13:53:34.359Z,21.05
2022-12-01T13:56:21.745Z,20.42
2022-12-01T13:58:51.123Z,20.00
2022-12-01T14:01:41.817Z,19.42
2022-12-01T14:04:31.284Z,19.40
2022-12-01T14:07:31.024Z,18.20
2022-12-01T14:10:27.620Z,17.45
2022-12-01T14:12:59.445Z,19.38
2022-12-01T14:15:33.697Z,19.02
2022-12-01T14:18:05.779Z,18.73
2022-12-01T14:20:37.825Z,19.48
2022-12-01T14:23:21.313Z,19.85
2022-12-01T14:26:12.619Z,20.00
2022-12-01T14:29:10.168Z,19.85
2022-12-01T14:32:17.401Z,18.33
2022-12-01T14:34:45.045Z,21.13
2022-12-01T14:37:16.239Z,19.20
2022-12-01T14:39:45.894Z,20.25
2022-12-01T14:42:42.343Z,20.17
2022-12-01T14:45:13.413Z,18.57
2022-12-01T14:47:44.910Z,19.77
2022-12-01T14:50:17.319Z,19.95
2022-12-01T14:52:49.174Z,19.92
2022-12-01T14:55:20.700Z,19.98
2022-12-01T14:57:52.417Z,19.93
2022-12-01T15:00:22.306Z,19.42
2022-12-01T15:02:55.010Z,19.33
2022-12-01T15:05:25.126Z,20.58
2022-12-01T15:08:06.781Z,18.40
2022-12-01T15:10:50.045Z,19.40
2022-12-01T15:13:23.787Z,20.02
2022-12-01T15:15:53.284Z,20.35
2022-12-01T15:18:22.612Z,20.17
2022-12-01T15:20:55.509Z,18.73
2022-12-01T15:23:22.943Z,18.67
2022-12-01T15:25:50.427Z,20.48
2022-12-01T15:28:22.484Z,20.40
2022-12-01T15:30:53.071Z,20.52
2022-12-01T15:33:26.966Z,19.67
2022-12-01T15:35:55.830Z,18.90
2022-12-01T15:38:27.241Z,17.85
2022-12-01T15:43:54.827Z,18.85
2022-12-01T15:46:28.175Z,19.50
2022-12-01T15:49:07.629Z,20.17
2022-12-01T15:51:35.450Z,19.80
2022-12-01T15:54:03.713Z,20.10
2022-12-01T15:56:33.218Z,20.25
2022-12-01T15:59:09.308Z,19.23
2022-12-01T16:01:37.481Z,18.37
2022-12-01T16:04:07.300Z,19.52
2022-12-01T16:06:36.556Z,20.45
2022-12-01T16:09:06.107Z,20.63
2022-12-01T16:11:33.965Z,19.73
2022-12-01T16:14:04.705Z,19.93
2022-12-01T16:16:37.374Z,20.25
2022-12-01T16:19:26.407Z,20.48
2022-12-01T16:22:01.254Z,20.38
2022-12-01T16:24:31.950Z,20.52
2022-12-01T16:27:01.753Z,20.03
2022-12-01T16:29:34.553Z,20.30
2022-12-01T16:32:20.299Z,20.75
2022-12-01T16:34:50.107Z,20.38
2022-12-01T16:37:17.678Z,19.05
2022-12-01T16:39:45.537Z,20.73
2022-12-01T16:42:14.509Z,19.13
2022-12-01T16:44:45.609Z,20.05
2022-12-01T16:47:15.444Z,19.27
2022-12-01T16:49:43.006Z,20.25
2022-12-01T16:54:59.769Z,19.10
2022-12-01T16:57:28.019Z,18.40
2022-12-01T16:59:56.962Z,20.27
2022-12-01T17:02:24.544Z,19.33
2022-12-01T17:04:52.540Z,19.07
2022-12-01T17:07:20.380Z,24.98
2022-12-01T17:09:47.876Z,21.55
2022-12-01T17:12:15.244Z,21.33
2022-12-01T17:14:42.595Z,20.85
2022-12-01T17:17:11.250Z,20.80
2022-12-01T17:19:38.691Z,22.00
2022-12-01T17:22:06.115Z,22.00
2022-12-01T17:24:33.602Z,20.27
2022-12-01T17:27:01.207Z,20.27
2022-12-01T17:29:28.575Z,20.07
2022-12-01T17:31:55.863Z,20.02
2022-12-01T17:34:24.634Z,20.65
2022-12-01T17:36:53.563Z,23.77
2022-12-01T17:39:21.091Z,20.33
2022-12-01T17:41:48.564Z,21.13
2022-12-01T17:44:16.007Z,19.33
2022-12-01T17:46:43.417Z,20.48
2022-12-01T17:49:11.904Z,20.13
2022-12-01T17:51:41.734Z,19.77
2022-12-01T17:54:09.494Z,20.27
2022-12-01T17:56:36.924Z,19.63
2022-12-01T17:59:04.381Z,20.60
2022-12-01T18:01:31.947Z,19.83
2022-12-01T18:03:59.430Z,20.33
2022-12-01T18:06:27.215Z,20.17
2022-12-01T18:08:57.456Z,17.92
2022-12-01T18:11:25.048Z,20.45
2022-12-01T18:13:53.007Z,18.88
2022-12-01T18:16:22.602Z,19.00
2022-12-01T18:18:50.511Z,20.37
2022-12-01T18:21:20.139Z,19.17
2022-12-01T18:23:49.328Z,19.88
2022-12-01T18:26:19.523Z,19.77
2022-12-01T18:28:46.902Z,19.08
2022-12-01T18:31:16.068Z,19.13
2022-12-01T18:33:44.972Z,19.38
2022-12-01T18:36:13.723Z,19.70
2022-12-01T18:38:41.513Z,20.08
2022-12-01T18:41:08.918Z,19.63
2022-12-01T18:43:37.795Z,18.77
2022-12-01T18:46:06.254Z,19.75
2022-12-01T18:48:34.894Z,19.17
2022-12-01T18:51:03.905Z,20.15
2022-12-01T18:53:32.000Z,20.52
2022-12-01T18:56:02.453Z,19.57
2022-12-01T18:58:30.049Z,21.17
2022-12-01T19:00:58.996Z,21.02
2022-12-01T19:03:29.448Z,20.52
2022-12-01T19:05:56.996Z,22.58
2022-12-01T19:08:25.378Z,20.87
2022-12-01T19:10:59.383Z,21.55
2022-12-01T19:13:26.879Z,20.02
2022-12-01T19:15:54.306Z,19.52
2022-12-01T19:18:23.289Z,19.95
2022-12-01T19:20:50.973Z,20.07
2022-12-01T19:23:18.507Z,19.48
2022-12-01T19:25:45.982Z,20.13
2022-12-01T19:28:13.467Z,19.13
2022-12-01T19:30:46.743Z,19.00
2022-12-01T19:33:16.363Z,19.17
2022-12-01T19:35:45.147Z,19.30
2022-12-01T19:38:12.734Z,19.25
2022-12-01T19:40:42.094Z,18.92
2022-12-01T19:43:09.519Z,20.02
2022-12-01T19:45:37.627Z,19.50
2022-12-01T19:48:06.085Z,18.90
2022-12-01T19:50:35.539Z,18.30
2022-12-01T19:53:04.387Z,19.45
2022-12-01T19:55:31.862Z,20.15
2022-12-01T19:57:59.256Z,19.47
2022-12-01T20:00:26.695Z,19.38
2022-12-01T20:02:54.276Z,18.92
2022-12-01T20:05:21.613Z,18.88
2022-12-01T20:07:52.113Z,19.35
2022-12-01T20:10:21.293Z,19.40
2022-12-01T20:12:49.124Z,20.02
2022-12-01T20:15:16.944Z,19.60
2022-12-01T20:17:44.329Z,18.48
2022-12-01T20:20:12.596Z,19.55
2022-12-01T20:22:40.168Z,18.97
2022-12-01T20:25:09.699Z,18.77
2022-12-01T20:27:38.537Z,19.65
2022-12-01T20:30:07.263Z,18.52
2022-12-01T20:32:35.116Z,17.70
2022-12-01T20:35:02.556Z,18.83
2022-12-01T20:37:30.033Z,18.73
2022-12-01T20:39:57.843Z,19.33
2022-12-01T20:42:25.516Z,18.83
2022-12-01T20:44:54.253Z,19.38
2022-12-01T20:47:21.619Z,18.57
2022-12-01T20:49:49.901Z,19.05
2022-12-01T20:52:19.406Z,16.85
2022-12-01T20:54:46.802Z,19.25
2022-12-01T20:57:14.116Z,16.48
2022-12-01T20:59:41.517Z,18.53
2022-12-01T21:02:10.952Z,18.10
2022-12-01T21:04:38.341Z,18.73
2022-12-01T21:07:05.699Z,18.77
2022-12-01T21:09:33.017Z,18.92
2022-12-01T21:12:21.435Z,17.70
2022-12-01T21:15:02.140Z,18.13
2022-12-01T21:17:34.273Z,18.52
2022-12-01T21:20:06.996Z,18.27
2022-12-01T21:22:35.561Z,19.25
2022-12-01T21:25:10.813Z,18.00
2022-12-01T21:27:38.282Z,17.98
2022-12-01T21:30:14.293Z,18.88
2022-12-01T21:32:44.694Z,17.85
2022-12-01T21:35:18.196Z,18.67
2022-12-01T21:37:46.182Z,17.33
2022-12-01T21:40:19.722Z,17.45
2022-12-01T21:42:47.495Z,18.38
2022-12-01T21:45:20.032Z,18.00
2022-12-01T21:47:48.771Z,18.58
2022-12-01T21:50:22.256Z,17.10
2022-12-01T21:52:50.131Z,18.45
2022-12-01T21:55:36.167Z,19.17
2022-12-01T21:58:23.703Z,19.58
2022-12-01T22:00:52.685Z,17.77
2022-12-01T22:03:29.263Z,18.90
2022-12-01T22:06:28.197Z,18.95
2022-12-01T22:08:51.782Z,17.65
2022-12-01T22:11:21.892Z,17.40
2022-12-01T22:13:54.912Z,19.20
2022-12-01T22:16:26.060Z,17.83
2022-12-01T22:18:56.570Z,17.45
2022-12-01T22:21:35.843Z,16.70
2022-12-01T22:24:20.998Z,19.38
2022-12-01T22:26:51.213Z,18.55
2022-12-01T22:29:27.997Z,19.43
2022-12-01T22:32:25.405Z,18.13
2022-12-01T22:34:57.597Z,17.13
2022-12-01T22:37:34.136Z,17.73
2022-12-01T22:40:01.958Z,17.80
2022-12-01T22:42:31.664Z,17.67
2022-12-01T22:45:01.077Z,17.63
2022-12-01T22:47:32.640Z,17.92
2022-12-01T22:50:02.195Z,17.90
2022-12-01T22:52:30.417Z,17.05
2022-12-01T22:54:57.852Z,17.87
2022-12-01T22:57:29.497Z,18.80
2022-12-01T22:59:58.192Z,17.67
2022-12-01T23:02:32.076Z,17.63
2022-12-01T23:05:14.278Z,17.50
2022-12-01T23:07:43.251Z,18.00
2022-12-01T23:10:15.366Z,18.30
2022-12-01T23:12:43.896Z,18.63
2022-12-01T23:15:22.988Z,18.92
2022-12-01T23:17:51.132Z,17.10
2022-12-01T23:20:33.417Z,17.37
2022-12-01T23:23:03.354Z,16.60
2022-12-01T23:25:31.330Z,16.52
2022-12-01T23:28:01.154Z,17.23
2022-12-01T23:30:28.546Z,17.25
2022-12-01T23:33:16.686Z,18.17
2022-12-01T23:35:48.614Z,17.55
2022-12-01T23:38:18.900Z,17.10
2022-12-01T23:40:46.875Z,17.45
2022-12-01T23:43:18.906Z,17.70
2022-12-01T23:45:48.076Z,17.10
2022-12-01T23:48:20.528Z,16.67
2022-12-01T23:50:51.181Z,17.83
2022-12-01T23:53:26.399Z,17.85
2022-12-01T23:55:54.520Z,16.92
2022-12-01T23:58:21.896Z,16.73
